sensor_id;sensor_type;location;lat;lon;timestamp;P1;durP1;ratioP1;P2;durP2;ratioP2
8407;SDS011;4241;48.452;9.216;2022-09-17T00:01:16;377.53;;;127.60;;
8407;SDS011;4241;48.452;9.216;2022-09-17T00:03:47;375.23;;;126.90;;
8407;SDS011;4241;48.452;9.216;2022-09-17T00:06:15;374.53;;;126.07;;
8407;SDS011;4241;48.452;9.216;2022-09-17T00:08:42;376.13;;;125.37;;
8407;SDS011;4241;48.452;9.216;2022-09-17T00:11:09;380.50;;;128.03;;
8407;SDS011;4241;48.452;9.216;2022-09-17T00:13:39;378.27;;;126.97;;
8407;SDS011;4241;48.452;9.216;2022-09-17T00:16:08;384.43;;;128.53;;
8407;SDS011;4241;48.452;9.216;2022-09-17T00:18:34;393.67;;;135.20;;
8407;SDS011;4241;48.452;9.216;2022-09-17T00:21:05;385.23;;;128.57;;
8407;SDS011;4241;48.452;9.216;2022-09-17T00:23:32;387.53;;;129.23;;
8407;SDS011;4241;48.452;9.216;2022-09-17T00:25:59;390.33;;;130.97;;
8407;SDS011;4241;48.452;9.216;2022-09-17T00:28:30;395.50;;;135.30;;
8407;SDS011;4241;48.452;9.216;2022-09-17T00:30:57;388.90;;;129.73;;
8407;SDS011;4241;48.452;9.216;2022-09-17T00:33:25;391.33;;;131.13;;
8407;SDS011;4241;48.452;9.216;2022-09-17T00:35:56;390.80;;;130.80;;
8407;SDS011;4241;48.452;9.216;2022-09-17T00:38:24;397.57;;;136.00;;
8407;SDS011;4241;48.452;9.216;2022-09-17T00:40:51;394.47;;;133.47;;
8407;SDS011;4241;48.452;9.216;2022-09-17T00:43:30;395.27;;;132.50;;
8407;SDS011;4241;48.452;9.216;2022-09-17T00:46:03;391.57;;;129.70;;
8407;SDS011;4241;48.452;9.216;2022-09-17T00:48:35;399.07;;;134.73;;
8407;SDS011;4241;48.452;9.216;2022-09-17T00:51:02;395.33;;;131.53;;
8407;SDS011;4241;48.452;9.216;2022-09-17T00:53:32;396.43;;;132.67;;
8407;SDS011;4241;48.452;9.216;2022-09-17T00:56:00;398.37;;;133.93;;
8407;SDS011;4241;48.452;9.216;2022-09-17T00:58:31;401.87;;;136.10;;
8407;SDS011;4241;48.452;9.216;2022-09-17T01:01:00;397.07;;;133.30;;
8407;SDS011;4241;48.452;9.216;2022-09-17T01:03:27;397.83;;;133.43;;
8407;SDS011;4241;48.452;9.216;2022-09-17T01:05:56;401.33;;;134.10;;
8407;SDS011;4241;48.452;9.216;2022-09-17T01:08:32;401.67;;;134.47;;
8407;SDS011;4241;48.452;9.216;2022-09-17T01:11:11;400.37;;;134.70;;
8407;SDS011;4241;48.452;9.216;2022-09-17T01:13:51;398.10;;;132.90;;
8407;SDS011;4241;48.452;9.216;2022-09-17T01:16:28;399.73;;;134.20;;
8407;SDS011;4241;48.452;9.216;2022-09-17T01:19:05;399.20;;;132.57;;
8407;SDS011;4241;48.452;9.216;2022-09-17T01:22:00;396.70;;;131.43;;
8407;SDS011;4241;48.452;9.216;2022-09-17T01:24:52;396.73;;;130.83;;
8407;SDS011;4241;48.452;9.216;2022-09-17T01:28:09;393.90;;;130.87;;
8407;SDS011;4241;48.452;9.216;2022-09-17T01:33:47;397.57;;;132.93;;
8407;SDS011;4241;48.452;9.216;2022-09-17T01:36:21;398.87;;;133.33;;
8407;SDS011;4241;48.452;9.216;2022-09-17T01:39:00;403.20;;;134.37;;
8407;SDS011;4241;48.452;9.216;2022-09-17T01:41:36;403.43;;;133.50;;
8407;SDS011;4241;48.452;9.216;2022-09-17T01:44:11;405.07;;;132.73;;
8407;SDS011;4241;48.452;9.216;2022-09-17T01:46:44;403.93;;;133.80;;
8407;SDS011;4241;48.452;9.216;2022-09-17T01:49:15;404.77;;;134.73;;
8407;SDS011;4241;48.452;9.216;2022-09-17T01:51:43;402.87;;;133.40;;
8407;SDS011;4241;48.452;9.216;2022-09-17T01:54:13;405.70;;;135.07;;
8407;SDS011;4241;48.452;9.216;2022-09-17T01:56:45;403.63;;;134.03;;
8407;SDS011;4241;48.452;9.216;2022-09-17T01:59:17;403.07;;;133.17;;
8407;SDS011;4241;48.452;9.216;2022-09-17T02:01:50;400.53;;;132.07;;
8407;SDS011;4241;48.452;9.216;2022-09-17T02:04:21;403.93;;;133.57;;
8407;SDS011;4241;48.452;9.216;2022-09-17T02:06:52;403.13;;;133.63;;
8407;SDS011;4241;48.452;9.216;2022-09-17T02:09:25;405.03;;;134.47;;
8407;SDS011;4241;48.452;9.216;2022-09-17T02:11:55;405.37;;;133.63;;
8407;SDS011;4241;48.452;9.216;2022-09-17T02:14:28;407.73;;;136.77;;
8407;SDS011;4241;48.452;9.216;2022-09-17T02:17:02;401.23;;;131.83;;
8407;SDS011;4241;48.452;9.216;2022-09-17T02:19:35;403.60;;;134.07;;
8407;SDS011;4241;48.452;9.216;2022-09-17T02:22:05;404.63;;;133.83;;
8407;SDS011;4241;48.452;9.216;2022-09-17T02:24:41;403.87;;;134.07;;
8407;SDS011;4241;48.452;9.216;2022-09-17T02:27:14;402.83;;;133.97;;
8407;SDS011;4241;48.452;9.216;2022-09-17T02:29:44;397.83;;;129.87;;
8407;SDS011;4241;48.452;9.216;2022-09-17T02:32:12;401.67;;;131.50;;
8407;SDS011;4241;48.452;9.216;2022-09-17T02:34:39;399.37;;;130.50;;
8407;SDS011;4241;48.452;9.216;2022-09-17T02:37:06;401.40;;;131.70;;
8407;SDS011;4241;48.452;9.216;2022-09-17T02:39:33;401.37;;;131.33;;
8407;SDS011;4241;48.452;9.216;2022-09-17T02:42:02;399.43;;;130.73;;
8407;SDS011;4241;48.452;9.216;2022-09-17T02:44:42;398.40;;;129.43;;
8407;SDS011;4241;48.452;9.216;2022-09-17T02:50:25;393.40;;;127.27;;
8407;SDS011;4241;48.452;9.216;2022-09-17T02:53:10;395.10;;;128.27;;
8407;SDS011;4241;48.452;9.216;2022-09-17T02:55:51;393.97;;;128.23;;
8407;SDS011;4241;48.452;9.216;2022-09-17T02:58:25;404.87;;;134.77;;
8407;SDS011;4241;48.452;9.216;2022-09-17T03:00:58;398.50;;;130.30;;
8407;SDS011;4241;48.452;9.216;2022-09-17T03:03:32;402.07;;;131.93;;
8407;SDS011;4241;48.452;9.216;2022-09-17T03:06:03;403.13;;;131.67;;
8407;SDS011;4241;48.452;9.216;2022-09-17T03:08:31;407.20;;;134.03;;
8407;SDS011;4241;48.452;9.216;2022-09-17T03:11:01;402.70;;;131.73;;
8407;SDS011;4241;48.452;9.216;2022-09-17T03:13:28;404.60;;;129.40;;
8407;SDS011;4241;48.452;9.216;2022-09-17T03:15:55;406.20;;;131.43;;
8407;SDS011;4241;48.452;9.216;2022-09-17T03:18:22;412.30;;;138.27;;
8407;SDS011;4241;48.452;9.216;2022-09-17T03:20:50;404.63;;;131.30;;
8407;SDS011;4241;48.452;9.216;2022-09-17T03:23:17;406.73;;;131.53;;
8407;SDS011;4241;48.452;9.216;2022-09-17T03:25:44;406.30;;;130.90;;
8407;SDS011;4241;48.452;9.216;2022-09-17T03:28:12;407.70;;;132.00;;
8407;SDS011;4241;48.452;9.216;2022-09-17T03:30:38;413.70;;;132.50;;
8407;SDS011;4241;48.452;9.216;2022-09-17T03:33:05;413.43;;;132.33;;
8407;SDS011;4241;48.452;9.216;2022-09-17T03:35:32;416.90;;;130.90;;
8407;SDS011;4241;48.452;9.216;2022-09-17T03:38:00;417.00;;;133.23;;
8407;SDS011;4241;48.452;9.216;2022-09-17T03:40:27;416.80;;;132.33;;
8407;SDS011;4241;48.452;9.216;2022-09-17T03:42:54;422.37;;;132.67;;
8407;SDS011;4241;48.452;9.216;2022-09-17T03:45:21;422.97;;;133.10;;
8407;SDS011;4241;48.452;9.216;2022-09-17T03:47:48;436.47;;;135.07;;
8407;SDS011;4241;48.452;9.216;2022-09-17T03:50:15;437.77;;;131.93;;
8407;SDS011;4241;48.452;9.216;2022-09-17T03:52:42;424.43;;;131.87;;
8407;SDS011;4241;48.452;9.216;2022-09-17T03:55:10;418.07;;;132.40;;
8407;SDS011;4241;48.452;9.216;2022-09-17T03:57:37;416.10;;;130.13;;
8407;SDS011;4241;48.452;9.216;2022-09-17T04:00:04;416.17;;;131.43;;
8407;SDS011;4241;48.452;9.216;2022-09-17T04:02:31;413.83;;;130.27;;
8407;SDS011;4241;48.452;9.216;2022-09-17T04:04:58;412.83;;;129.33;;
8407;SDS011;4241;48.452;9.216;2022-09-17T04:07:25;413.83;;;130.83;;
8407;SDS011;4241;48.452;9.216;2022-09-17T04:09:52;410.93;;;128.67;;
8407;SDS011;4241;48.452;9.216;2022-09-17T04:12:20;412.63;;;129.47;;
8407;SDS011;4241;48.452;9.216;2022-09-17T04:14:47;408.50;;;128.63;;
8407;SDS011;4241;48.452;9.216;2022-09-17T04:17:14;394.50;;;125.50;;
8407;SDS011;4241;48.452;9.216;2022-09-17T04:19:42;388.80;;;125.53;;
8407;SDS011;4241;48.452;9.216;2022-09-17T04:22:09;391.60;;;127.07;;
8407;SDS011;4241;48.452;9.216;2022-09-17T04:24:35;393.03;;;125.63;;
8407;SDS011;4241;48.452;9.216;2022-09-17T04:27:02;390.40;;;125.50;;
8407;SDS011;4241;48.452;9.216;2022-09-17T04:29:30;391.80;;;124.90;;
8407;SDS011;4241;48.452;9.216;2022-09-17T04:31:57;392.83;;;124.87;;
8407;SDS011;4241;48.452;9.216;2022-09-17T04:34:24;398.97;;;126.10;;
8407;SDS011;4241;48.452;9.216;2022-09-17T04:36:51;406.27;;;129.67;;
8407;SDS011;4241;48.452;9.216;2022-09-17T04:39:18;412.23;;;131.63;;
8407;SDS011;4241;48.452;9.216;2022-09-17T04:41:44;419.17;;;128.47;;
8407;SDS011;4241;48.452;9.216;2022-09-17T04:44:12;400.27;;;127.57;;
8407;SDS011;4241;48.452;9.216;2022-09-17T04:46:40;380.07;;;123.23;;
8407;SDS011;4241;48.452;9.216;2022-09-17T04:49:06;375.90;;;122.40;;
8407;SDS011;4241;48.452;9.216;2022-09-17T04:51:33;371.20;;;122.40;;
8407;SDS011;4241;48.452;9.216;2022-09-17T04:54:00;372.93;;;123.30;;
8407;SDS011;4241;48.452;9.216;2022-09-17T04:56:27;370.67;;;122.13;;
8407;SDS011;4241;48.452;9.216;2022-09-17T04:58:54;370.77;;;121.73;;
8407;SDS011;4241;48.452;9.216;2022-09-17T05:01:20;375.40;;;123.03;;
8407;SDS011;4241;48.452;9.216;2022-09-17T05:03:49;374.87;;;124.27;;
8407;SDS011;4241;48.452;9.216;2022-09-17T05:06:15;379.63;;;125.10;;
8407;SDS011;4241;48.452;9.216;2022-09-17T05:08:42;376.73;;;123.73;;
8407;SDS011;4241;48.452;9.216;2022-09-17T05:11:09;376.40;;;123.80;;
8407;SDS011;4241;48.452;9.216;2022-09-17T05:13:36;378.47;;;125.33;;
8407;SDS011;4241;48.452;9.216;2022-09-17T05:16:03;378.67;;;124.10;;
8407;SDS011;4241;48.452;9.216;2022-09-17T05:18:30;385.87;;;128.83;;
8407;SDS011;4241;48.452;9.216;2022-09-17T05:20:58;375.10;;;121.97;;
8407;SDS011;4241;48.452;9.216;2022-09-17T05:23:25;377.77;;;123.47;;
8407;SDS011;4241;48.452;9.216;2022-09-17T05:25:52;378.57;;;123.53;;
8407;SDS011;4241;48.452;9.216;2022-09-17T05:28:23;384.37;;;127.53;;
8407;SDS011;4241;48.452;9.216;2022-09-17T05:30:49;379.23;;;123.53;;
8407;SDS011;4241;48.452;9.216;2022-09-17T05:33:16;382.67;;;124.77;;
8407;SDS011;4241;48.452;9.216;2022-09-17T05:35:44;383.63;;;124.73;;
8407;SDS011;4241;48.452;9.216;2022-09-17T05:38:13;386.10;;;125.60;;
8407;SDS011;4241;48.452;9.216;2022-09-17T05:40:39;384.50;;;125.63;;
8407;SDS011;4241;48.452;9.216;2022-09-17T05:43:06;386.00;;;124.70;;
8407;SDS011;4241;48.452;9.216;2022-09-17T05:45:33;387.13;;;126.70;;
8407;SDS011;4241;48.452;9.216;2022-09-17T05:48:02;384.70;;;124.03;;
8407;SDS011;4241;48.452;9.216;2022-09-17T05:50:30;390.33;;;126.83;;
8407;SDS011;4241;48.452;9.216;2022-09-17T05:53:02;389.60;;;126.33;;
8407;SDS011;4241;48.452;9.216;2022-09-17T05:55:31;391.20;;;126.73;;
8407;SDS011;4241;48.452;9.216;2022-09-17T05:57:59;390.37;;;126.97;;
8407;SDS011;4241;48.452;9.216;2022-09-17T06:00:26;394.33;;;128.50;;
8407;SDS011;4241;48.452;9.216;2022-09-17T06:02:54;390.47;;;127.43;;
8407;SDS011;4241;48.452;9.216;2022-09-17T06:05:21;392.47;;;129.13;;
8407;SDS011;4241;48.452;9.216;2022-09-17T06:07:48;390.40;;;126.80;;
8407;SDS011;4241;48.452;9.216;2022-09-17T06:10:16;389.50;;;127.33;;
8407;SDS011;4241;48.452;9.216;2022-09-17T06:12:44;389.37;;;127.27;;
8407;SDS011;4241;48.452;9.216;2022-09-17T06:15:11;394.83;;;130.00;;
8407;SDS011;4241;48.452;9.216;2022-09-17T06:17:39;395.57;;;130.33;;
8407;SDS011;4241;48.452;9.216;2022-09-17T06:20:06;396.57;;;129.27;;
8407;SDS011;4241;48.452;9.216;2022-09-17T06:22:33;396.23;;;129.33;;
8407;SDS011;4241;48.452;9.216;2022-09-17T06:25:00;398.77;;;131.23;;
8407;SDS011;4241;48.452;9.216;2022-09-17T06:27:29;396.70;;;129.57;;
8407;SDS011;4241;48.452;9.216;2022-09-17T06:29:58;400.03;;;131.47;;
8407;SDS011;4241;48.452;9.216;2022-09-17T06:32:25;398.77;;;129.97;;
8407;SDS011;4241;48.452;9.216;2022-09-17T06:34:52;400.17;;;132.30;;
8407;SDS011;4241;48.452;9.216;2022-09-17T06:37:19;400.23;;;131.50;;
8407;SDS011;4241;48.452;9.216;2022-09-17T06:39:52;399.67;;;131.53;;
8407;SDS011;4241;48.452;9.216;2022-09-17T06:42:19;399.20;;;130.90;;
8407;SDS011;4241;48.452;9.216;2022-09-17T06:44:45;398.13;;;129.73;;
8407;SDS011;4241;48.452;9.216;2022-09-17T06:47:14;398.67;;;129.77;;
8407;SDS011;4241;48.452;9.216;2022-09-17T06:49:41;397.57;;;129.17;;
8407;SDS011;4241;48.452;9.216;2022-09-17T06:52:07;398.77;;;129.90;;
8407;SDS011;4241;48.452;9.216;2022-09-17T06:54:34;403.70;;;131.97;;
8407;SDS011;4241;48.452;9.216;2022-09-17T06:57:01;401.23;;;131.83;;
8407;SDS011;4241;48.452;9.216;2022-09-17T06:59:28;406.20;;;135.50;;
8407;SDS011;4241;48.452;9.216;2022-09-17T07:01:55;403.53;;;131.33;;
8407;SDS011;4241;48.452;9.216;2022-09-17T07:04:23;407.90;;;133.17;;
8407;SDS011;4241;48.452;9.216;2022-09-17T07:06:50;409.63;;;134.40;;
8407;SDS011;4241;48.452;9.216;2022-09-17T07:09:16;409.17;;;134.90;;
8407;SDS011;4241;48.452;9.216;2022-09-17T07:11:43;409.03;;;133.70;;
8407;SDS011;4241;48.452;9.216;2022-09-17T07:14:10;406.53;;;131.53;;
8407;SDS011;4241;48.452;9.216;2022-09-17T07:16:37;409.77;;;134.67;;
8407;SDS011;4241;48.452;9.216;2022-09-17T07:19:04;410.03;;;134.47;;
8407;SDS011;4241;48.452;9.216;2022-09-17T07:21:32;410.97;;;135.20;;
8407;SDS011;4241;48.452;9.216;2022-09-17T07:23:59;411.80;;;134.90;;
8407;SDS011;4241;48.452;9.216;2022-09-17T07:26:26;413.37;;;135.47;;
8407;SDS011;4241;48.452;9.216;2022-09-17T07:28:53;426.77;;;142.63;;
8407;SDS011;4241;48.452;9.216;2022-09-17T07:31:19;414.10;;;136.87;;
8407;SDS011;4241;48.452;9.216;2022-09-17T07:33:47;415.93;;;135.67;;
8407;SDS011;4241;48.452;9.216;2022-09-17T07:36:14;419.47;;;137.57;;
8407;SDS011;4241;48.452;9.216;2022-09-17T07:38:44;420.33;;;136.77;;
8407;SDS011;4241;48.452;9.216;2022-09-17T07:41:11;424.27;;;138.90;;
8407;SDS011;4241;48.452;9.216;2022-09-17T07:43:39;424.17;;;139.60;;
8407;SDS011;4241;48.452;9.216;2022-09-17T07:46:07;424.97;;;137.67;;
8407;SDS011;4241;48.452;9.216;2022-09-17T07:48:38;427.37;;;140.67;;
8407;SDS011;4241;48.452;9.216;2022-09-17T07:51:05;426.20;;;137.43;;
8407;SDS011;4241;48.452;9.216;2022-09-17T07:53:32;426.60;;;139.30;;
8407;SDS011;4241;48.452;9.216;2022-09-17T07:56:00;426.20;;;139.73;;
8407;SDS011;4241;48.452;9.216;2022-09-17T07:58:28;432.27;;;145.27;;
8407;SDS011;4241;48.452;9.216;2022-09-17T08:00:58;424.53;;;138.70;;
8407;SDS011;4241;48.452;9.216;2022-09-17T08:03:26;424.07;;;139.30;;
8407;SDS011;4241;48.452;9.216;2022-09-17T08:05:59;423.83;;;138.27;;
8407;SDS011;4241;48.452;9.216;2022-09-17T08:08:28;433.10;;;145.13;;
8407;SDS011;4241;48.452;9.216;2022-09-17T08:10:59;421.67;;;137.43;;
8407;SDS011;4241;48.452;9.216;2022-09-17T08:13:27;424.27;;;138.43;;
8407;SDS011;4241;48.452;9.216;2022-09-17T08:15:56;422.97;;;138.60;;
8407;SDS011;4241;48.452;9.216;2022-09-17T08:18:24;428.27;;;142.10;;
8407;SDS011;4241;48.452;9.216;2022-09-17T08:20:51;424.60;;;137.90;;
8407;SDS011;4241;48.452;9.216;2022-09-17T08:23:21;425.43;;;137.50;;
8407;SDS011;4241;48.452;9.216;2022-09-17T08:25:50;426.53;;;138.40;;
8407;SDS011;4241;48.452;9.216;2022-09-17T08:28:19;428.13;;;139.00;;
8407;SDS011;4241;48.452;9.216;2022-09-17T08:30:46;426.77;;;137.20;;
8407;SDS011;4241;48.452;9.216;2022-09-17T08:33:14;428.33;;;139.43;;
8407;SDS011;4241;48.452;9.216;2022-09-17T08:35:41;426.57;;;136.57;;
8407;SDS011;4241;48.452;9.216;2022-09-17T08:38:11;427.90;;;138.87;;
8407;SDS011;4241;48.452;9.216;2022-09-17T08:40:39;429.27;;;138.57;;
8407;SDS011;4241;48.452;9.216;2022-09-17T08:43:13;432.83;;;140.37;;
8407;SDS011;4241;48.452;9.216;2022-09-17T08:45:44;433.23;;;140.77;;
8407;SDS011;4241;48.452;9.216;2022-09-17T08:48:18;427.53;;;137.03;;
8407;SDS011;4241;48.452;9.216;2022-09-17T08:50:45;429.47;;;137.00;;
8407;SDS011;4241;48.452;9.216;2022-09-17T08:53:18;431.30;;;137.20;;
8407;SDS011;4241;48.452;9.216;2022-09-17T08:55:57;432.10;;;137.20;;
8407;SDS011;4241;48.452;9.216;2022-09-17T09:01:33;435.87;;;138.90;;
8407;SDS011;4241;48.452;9.216;2022-09-17T09:04:15;436.93;;;137.13;;
8407;SDS011;4241;48.452;9.216;2022-09-17T09:06:57;441.17;;;139.73;;
8407;SDS011;4241;48.452;9.216;2022-09-17T09:09:28;441.67;;;138.73;;
8407;SDS011;4241;48.452;9.216;2022-09-17T09:12:01;445.67;;;140.70;;
8407;SDS011;4241;48.452;9.216;2022-09-17T09:14:31;447.87;;;143.17;;
8407;SDS011;4241;48.452;9.216;2022-09-17T09:17:05;446.50;;;140.77;;
8407;SDS011;4241;48.452;9.216;2022-09-17T09:19:38;446.37;;;139.17;;
8407;SDS011;4241;48.452;9.216;2022-09-17T09:22:13;446.13;;;139.60;;
8407;SDS011;4241;48.452;9.216;2022-09-17T09:24:50;446.97;;;140.53;;
8407;SDS011;4241;48.452;9.216;2022-09-17T09:27:22;447.23;;;141.50;;
8407;SDS011;4241;48.452;9.216;2022-09-17T09:29:56;445.40;;;139.80;;
8407;SDS011;4241;48.452;9.216;2022-09-17T09:32:34;426.00;;;130.27;;
8407;SDS011;4241;48.452;9.216;2022-09-17T09:35:14;376.43;;;133.30;;
8407;SDS011;4241;48.452;9.216;2022-09-17T09:37:49;371.10;;;133.13;;
8407;SDS011;4241;48.452;9.216;2022-09-17T09:40:30;368.87;;;131.07;;
8407;SDS011;4241;48.452;9.216;2022-09-17T09:43:02;366.13;;;130.50;;
8407;SDS011;4241;48.452;9.216;2022-09-17T09:45:42;371.93;;;133.00;;
8407;SDS011;4241;48.452;9.216;2022-09-17T09:48:32;377.23;;;136.37;;
8407;SDS011;4241;48.452;9.216;2022-09-17T09:51:12;377.27;;;134.67;;
8407;SDS011;4241;48.452;9.216;2022-09-17T09:53:48;381.23;;;137.63;;
8407;SDS011;4241;48.452;9.216;2022-09-17T09:56:32;381.23;;;136.30;;
8407;SDS011;4241;48.452;9.216;2022-09-17T09:59:09;383.87;;;138.97;;
8407;SDS011;4241;48.452;9.216;2022-09-17T10:01:38;383.40;;;139.73;;
8407;SDS011;4241;48.452;9.216;2022-09-17T10:04:13;386.13;;;141.57;;
8407;SDS011;4241;48.452;9.216;2022-09-17T10:06:42;380.33;;;138.67;;
8407;SDS011;4241;48.452;9.216;2022-09-17T10:09:11;379.80;;;138.93;;
8407;SDS011;4241;48.452;9.216;2022-09-17T10:11:40;384.27;;;137.20;;
8407;SDS011;4241;48.452;9.216;2022-09-17T10:14:18;394.60;;;147.03;;
8407;SDS011;4241;48.452;9.216;2022-09-17T10:16:49;388.23;;;142.47;;
8407;SDS011;4241;48.452;9.216;2022-09-17T10:19:37;387.17;;;140.20;;
8407;SDS011;4241;48.452;9.216;2022-09-17T10:22:16;393.40;;;145.27;;
8407;SDS011;4241;48.452;9.216;2022-09-17T10:24:52;395.27;;;146.20;;
8407;SDS011;4241;48.452;9.216;2022-09-17T10:27:21;394.30;;;144.47;;
8407;SDS011;4241;48.452;9.216;2022-09-17T10:29:50;397.63;;;145.33;;
8407;SDS011;4241;48.452;9.216;2022-09-17T10:32:23;395.03;;;143.87;;
8407;SDS011;4241;48.452;9.216;2022-09-17T10:34:57;396.10;;;147.03;;
8407;SDS011;4241;48.452;9.216;2022-09-17T10:37:40;384.03;;;142.67;;
8407;SDS011;4241;48.452;9.216;2022-09-17T10:40:23;382.40;;;141.93;;
8407;SDS011;4241;48.452;9.216;2022-09-17T10:45:44;382.37;;;141.77;;
8407;SDS011;4241;48.452;9.216;2022-09-17T10:48:21;386.90;;;143.57;;
8407;SDS011;4241;48.452;9.216;2022-09-17T10:50:51;396.37;;;146.20;;
8407;SDS011;4241;48.452;9.216;2022-09-17T10:53:19;396.73;;;146.80;;
8407;SDS011;4241;48.452;9.216;2022-09-17T10:55:49;399.80;;;148.50;;
8407;SDS011;4241;48.452;9.216;2022-09-17T10:58:24;402.23;;;151.67;;
8407;SDS011;4241;48.452;9.216;2022-09-17T11:01:01;403.60;;;151.97;;
8407;SDS011;4241;48.452;9.216;2022-09-17T11:03:46;401.87;;;148.03;;
8407;SDS011;4241;48.452;9.216;2022-09-17T11:06:30;402.20;;;151.97;;
8407;SDS011;4241;48.452;9.216;2022-09-17T11:09:13;396.97;;;147.67;;
8407;SDS011;4241;48.452;9.216;2022-09-17T11:11:54;403.10;;;151.73;;
8407;SDS011;4241;48.452;9.216;2022-09-17T11:14:35;399.57;;;147.73;;
8407;SDS011;4241;48.452;9.216;2022-09-17T11:17:18;403.07;;;150.10;;
8407;SDS011;4241;48.452;9.216;2022-09-17T11:19:57;406.50;;;155.57;;
8407;SDS011;4241;48.452;9.216;2022-09-17T11:22:32;399.87;;;148.77;;
8407;SDS011;4241;48.452;9.216;2022-09-17T11:25:18;403.17;;;151.23;;
8407;SDS011;4241;48.452;9.216;2022-09-17T11:27:54;411.07;;;155.50;;
8407;SDS011;4241;48.452;9.216;2022-09-17T11:30:42;419.33;;;158.10;;
8407;SDS011;4241;48.452;9.216;2022-09-17T11:33:23;427.30;;;163.77;;
8407;SDS011;4241;48.452;9.216;2022-09-17T11:36:09;426.73;;;162.47;;
8407;SDS011;4241;48.452;9.216;2022-09-17T11:38:42;435.43;;;166.87;;
8407;SDS011;4241;48.452;9.216;2022-09-17T11:41:14;430.67;;;163.53;;
8407;SDS011;4241;48.452;9.216;2022-09-17T11:43:45;434.53;;;171.03;;
8407;SDS011;4241;48.452;9.216;2022-09-17T11:46:17;426.53;;;165.50;;
8407;SDS011;4241;48.452;9.216;2022-09-17T11:48:50;434.07;;;170.17;;
8407;SDS011;4241;48.452;9.216;2022-09-17T11:51:26;429.87;;;164.77;;
8407;SDS011;4241;48.452;9.216;2022-09-17T11:53:58;431.30;;;167.40;;
8407;SDS011;4241;48.452;9.216;2022-09-17T11:56:32;430.47;;;165.90;;
8407;SDS011;4241;48.452;9.216;2022-09-17T11:59:04;431.67;;;166.83;;
8407;SDS011;4241;48.452;9.216;2022-09-17T12:01:40;435.23;;;167.20;;
8407;SDS011;4241;48.452;9.216;2022-09-17T12:04:18;440.83;;;171.37;;
8407;SDS011;4241;48.452;9.216;2022-09-17T12:07:01;442.57;;;174.27;;
8407;SDS011;4241;48.452;9.216;2022-09-17T12:09:37;442.00;;;171.30;;
8407;SDS011;4241;48.452;9.216;2022-09-17T12:12:09;441.67;;;173.50;;
8407;SDS011;4241;48.452;9.216;2022-09-17T12:14:43;441.53;;;173.37;;
8407;SDS011;4241;48.452;9.216;2022-09-17T12:17:14;440.77;;;173.13;;
8407;SDS011;4241;48.452;9.216;2022-09-17T12:19:45;438.73;;;172.60;;
8407;SDS011;4241;48.452;9.216;2022-09-17T12:22:16;435.40;;;168.27;;
8407;SDS011;4241;48.452;9.216;2022-09-17T12:24:50;436.03;;;170.27;;
8407;SDS011;4241;48.452;9.216;2022-09-17T12:27:20;442.07;;;173.10;;
8407;SDS011;4241;48.452;9.216;2022-09-17T12:30:07;442.33;;;174.77;;
8407;SDS011;4241;48.452;9.216;2022-09-17T12:32:40;442.33;;;172.10;;
8407;SDS011;4241;48.452;9.216;2022-09-17T12:35:26;439.87;;;170.67;;
8407;SDS011;4241;48.452;9.216;2022-09-17T12:38:18;444.50;;;173.03;;
8407;SDS011;4241;48.452;9.216;2022-09-17T12:40:56;443.60;;;173.77;;
8407;SDS011;4241;48.452;9.216;2022-09-17T12:43:39;447.47;;;176.43;;
8407;SDS011;4241;48.452;9.216;2022-09-17T12:46:19;446.37;;;174.73;;
8407;SDS011;4241;48.452;9.216;2022-09-17T12:49:06;444.03;;;176.50;;
8407;SDS011;4241;48.452;9.216;2022-09-17T12:52:01;442.17;;;175.20;;
8407;SDS011;4241;48.452;9.216;2022-09-17T12:54:36;440.50;;;175.53;;
8407;SDS011;4241;48.452;9.216;2022-09-17T12:57:20;437.23;;;171.37;;
8407;SDS011;4241;48.452;9.216;2022-09-17T12:59:55;440.13;;;175.20;;
8407;SDS011;4241;48.452;9.216;2022-09-17T13:02:29;438.03;;;172.27;;
8407;SDS011;4241;48.452;9.216;2022-09-17T13:08:06;436.63;;;171.13;;
8407;SDS011;4241;48.452;9.216;2022-09-17T13:10:57;437.53;;;172.03;;
8407;SDS011;4241;48.452;9.216;2022-09-17T13:13:54;439.73;;;172.17;;
8407;SDS011;4241;48.452;9.216;2022-09-17T13:16:24;429.33;;;166.90;;
8407;SDS011;4241;48.452;9.216;2022-09-17T13:18:57;428.50;;;163.47;;
8407;SDS011;4241;48.452;9.216;2022-09-17T13:21:30;427.57;;;164.30;;
8407;SDS011;4241;48.452;9.216;2022-09-17T13:24:02;427.90;;;165.30;;
8407;SDS011;4241;48.452;9.216;2022-09-17T13:26:41;421.53;;;161.10;;
8407;SDS011;4241;48.452;9.216;2022-09-17T13:29:11;422.03;;;162.03;;
8407;SDS011;4241;48.452;9.216;2022-09-17T13:31:48;419.23;;;161.37;;
8407;SDS011;4241;48.452;9.216;2022-09-17T13:34:28;420.73;;;158.87;;
8407;SDS011;4241;48.452;9.216;2022-09-17T13:36:57;416.37;;;158.30;;
8407;SDS011;4241;48.452;9.216;2022-09-17T13:39:32;416.87;;;159.43;;
8407;SDS011;4241;48.452;9.216;2022-09-17T13:42:04;405.50;;;153.23;;
8407;SDS011;4241;48.452;9.216;2022-09-17T13:44:38;401.43;;;154.93;;
8407;SDS011;4241;48.452;9.216;2022-09-17T13:47:08;386.83;;;145.10;;
8407;SDS011;4241;48.452;9.216;2022-09-17T13:49:42;380.77;;;142.13;;
8407;SDS011;4241;48.452;9.216;2022-09-17T13:52:13;372.60;;;138.37;;
8407;SDS011;4241;48.452;9.216;2022-09-17T13:54:53;370.33;;;137.03;;
8407;SDS011;4241;48.452;9.216;2022-09-17T13:57:20;364.57;;;132.80;;
8407;SDS011;4241;48.452;9.216;2022-09-17T13:59:53;368.80;;;136.47;;
8407;SDS011;4241;48.452;9.216;2022-09-17T14:02:26;360.73;;;133.67;;
8407;SDS011;4241;48.452;9.216;2022-09-17T14:05:22;359.40;;;132.27;;
8407;SDS011;4241;48.452;9.216;2022-09-17T14:08:08;359.33;;;133.00;;
8407;SDS011;4241;48.452;9.216;2022-09-17T14:10:42;350.83;;;127.30;;
8407;SDS011;4241;48.452;9.216;2022-09-17T14:13:22;362.87;;;132.60;;
8407;SDS011;4241;48.452;9.216;2022-09-17T14:15:58;366.73;;;133.90;;
8407;SDS011;4241;48.452;9.216;2022-09-17T14:18:36;376.87;;;138.77;;
8407;SDS011;4241;48.452;9.216;2022-09-17T14:21:22;374.00;;;136.03;;
8407;SDS011;4241;48.452;9.216;2022-09-17T14:23:54;378.77;;;138.30;;
8407;SDS011;4241;48.452;9.216;2022-09-17T14:26:33;378.37;;;137.93;;
8407;SDS011;4241;48.452;9.216;2022-09-17T14:29:15;376.30;;;137.63;;
8407;SDS011;4241;48.452;9.216;2022-09-17T14:32:02;378.67;;;138.63;;
8407;SDS011;4241;48.452;9.216;2022-09-17T14:34:32;387.37;;;142.60;;
8407;SDS011;4241;48.452;9.216;2022-09-17T14:36:58;385.50;;;140.80;;
8407;SDS011;4241;48.452;9.216;2022-09-17T14:39:26;390.00;;;143.93;;
8407;SDS011;4241;48.452;9.216;2022-09-17T14:42:01;388.53;;;141.97;;
8407;SDS011;4241;48.452;9.216;2022-09-17T14:44:30;390.17;;;144.20;;
8407;SDS011;4241;48.452;9.216;2022-09-17T14:47:01;396.23;;;148.40;;
8407;SDS011;4241;48.452;9.216;2022-09-17T14:49:34;390.80;;;144.30;;
8407;SDS011;4241;48.452;9.216;2022-09-17T14:52:06;391.33;;;144.93;;
8407;SDS011;4241;48.452;9.216;2022-09-17T14:57:34;396.07;;;147.77;;
8407;SDS011;4241;48.452;9.216;2022-09-17T15:00:02;400.97;;;148.23;;
8407;SDS011;4241;48.452;9.216;2022-09-17T15:02:33;406.03;;;152.70;;
8407;SDS011;4241;48.452;9.216;2022-09-17T15:05:15;404.97;;;152.10;;
8407;SDS011;4241;48.452;9.216;2022-09-17T15:07:44;419.07;;;162.73;;